Time;durP1;ratioP1;P1;durP2;ratioP2;P2;SDS_P1;SDS_P2;PMS_P1;PMS_P2;Temp;Humidity;BMP_temperature;BMP_pressure;BME280_temperature;BME280_humidity;BME280_pressure;Samples;Min_cycle;Max_cycle;Signal;HPM_P1;HPM_P2
2022/01/01 00:00:00;;;;;;;35.38;27.27;;;;;;;1.14;81.90;100565.59;452774;116;922501;-71
2022/01/01 00:01:04;;;;;;;32.26;25.49;;;;;;;1.13;81.81;100569.27;450625;116;922565;-77
2022/01/01 00:02:08;;;;;;;41.98;30.21;;;;;;;1.14;81.80;100570.13;452540;116;922907;-75
2022/01/01 00:03:13;;;;;;;42.31;28.48;;;;;;;1.14;81.79;100570.97;449943;116;922603;-75
2022/01/01 00:04:18;;;;;;;32.39;25.50;;;;;;;1.14;81.86;100570.13;450700;116;922565;-74
2022/01/01 00:05:21;;;;;;;41.14;28.66;;;;;;;1.15;81.81;100569.98;450123;116;923000;-75
2022/01/01 00:06:25;;;;;;;38.44;26.74;;;;;;;1.17;81.80;100567.11;450501;115;930556;-75
2022/01/01 00:07:28;;;;;;;35.79;27.64;;;;;;;1.17;81.80;100569.80;452602;116;922526;-74
2022/01/01 00:08:32;;;;;;;35.19;26.64;;;;;;;1.17;81.77;100559.90;453207;116;922549;-75
2022/01/01 00:09:36;;;;;;;39.83;27.69;;;;;;;1.18;81.81;100555.37;451760;116;922584;-72
2022/01/01 00:10:39;;;;;;;35.26;26.04;;;;;;;1.17;81.81;100559.90;452156;115;922498;-71
2022/01/01 00:11:44;;;;;;;34.26;24.92;;;;;;;1.17;81.83;100567.95;450726;116;922696;-71
2022/01/01 00:12:48;;;;;;;37.83;25.48;;;;;;;1.18;81.83;100566.97;453198;116;922576;-72
2022/01/01 00:13:52;;;;;;;44.20;28.58;;;;;;;1.18;81.78;100561.59;452021;116;922569;-72
2022/01/01 00:14:55;;;;;;;38.61;27.53;;;;;;;1.18;81.76;100563.43;451017;114;930173;-72
2022/01/01 00:15:58;;;;;;;37.33;28.14;;;;;;;1.18;81.83;100553.54;450218;116;922631;-72
2022/01/01 00:17:03;;;;;;;32.21;24.64;;;;;;;1.18;81.82;100550.85;454032;116;923129;-72
2022/01/01 00:18:07;;;;;;;38.28;27.60;;;;;;;1.19;81.85;100554.39;452663;115;922691;-72
2022/01/01 00:19:11;;;;;;;31.70;25.06;;;;;;;1.19;81.84;100554.39;450963;116;922685;-73
2022/01/01 00:20:15;;;;;;;38.11;27.02;;;;;;;1.17;81.86;100549.16;452453;116;922691;-72
2022/01/01 00:21:18;;;;;;;43.06;28.69;;;;;;;1.17;81.90;100548.31;452865;115;922669;-72
2022/01/01 00:22:22;;;;;;;31.07;23.23;;;;;;;1.19;82.00;100549.02;450888;116;922569;-74
2022/01/01 00:23:25;;;;;;;38.23;27.70;;;;;;;1.20;82.08;100548.87;452263;116;922618;-74
2022/01/01 00:24:29;;;;;;;37.93;27.82;;;;;;;1.22;82.16;100549.53;451154;116;930642;-76
2022/01/01 00:25:32;;;;;;;34.84;25.66;;;;;;;1.24;82.15;100539.49;451234;115;922615;-76
2022/01/01 00:26:36;;;;;;;34.78;24.82;;;;;;;1.25;82.20;100538.50;452525;114;922784;-76
2022/01/01 00:27:40;;;;;;;27.98;21.21;;;;;;;1.26;82.25;100528.60;452045;116;930679;-75
2022/01/01 00:28:44;;;;;;;34.03;24.99;;;;;;;1.27;82.29;100535.63;452339;116;922585;-72
2022/01/01 00:29:48;;;;;;;37.77;26.12;;;;;;;1.28;82.24;100536.48;452604;115;923018;-74
2022/01/01 00:30:51;;;;;;;30.74;24.38;;;;;;;1.27;82.18;100538.32;451271;116;922664;-75
2022/01/01 00:31:54;;;;;;;33.09;24.67;;;;;;;1.27;82.10;100526.77;450083;116;922877;-74
2022/01/01 00:32:58;;;;;;;31.84;25.16;;;;;;;1.24;82.11;100528.75;449801;116;922619;-72
2022/01/01 00:34:01;;;;;;;29.51;23.52;;;;;;;1.24;82.11;100531.44;453539;115;923508;-72
2022/01/01 00:35:05;;;;;;;32.27;25.71;;;;;;;1.25;82.17;100529.59;450362;116;922411;-71
2022/01/01 00:36:10;;;;;;;30.14;22.17;;;;;;;1.25;82.19;100526.91;453912;116;923036;-72
2022/01/01 00:37:13;;;;;;;38.77;26.55;;;;;;;1.27;82.18;100526.77;453561;115;922573;-72
2022/01/01 00:38:16;;;;;;;24.40;21.94;;;;;;;1.24;82.11;100526.06;451650;116;923075;-73
2022/01/01 00:39:19;;;;;;;30.10;23.50;;;;;;;1.23;82.15;100529.74;450740;116;922833;-71
2022/01/01 00:40:23;;;;;;;33.77;25.40;;;;;;;1.23;82.10;100526.20;453701;116;922487;-71
2022/01/01 00:41:26;;;;;;;24.91;21.15;;;;;;;1.22;82.10;100521.83;452714;115;922781;-74
2022/01/01 00:42:29;;;;;;;29.45;21.86;;;;;;;1.21;81.94;100522.86;452163;116;923112;-72
2022/01/01 00:43:33;;;;;;;27.95;22.71;;;;;;;1.18;81.89;100515.94;455869;115;922594;-72
2022/01/01 00:44:36;;;;;;;24.82;21.89;;;;;;;1.17;81.79;100521.46;455057;115;930467;-72
2022/01/01 00:45:40;;;;;;;29.08;23.34;;;;;;;1.16;81.73;100515.24;452126;115;930977;-72
2022/01/01 00:46:45;;;;;;;26.36;22.76;;;;;;;1.14;81.74;100513.73;452453;116;922754;-73
2022/01/01 00:47:48;;;;;;;28.40;24.06;;;;;;;1.14;81.74;100514.58;453673;116;922981;-72
2022/01/01 00:48:53;;;;;;;24.46;21.72;;;;;;;1.13;81.74;100509.35;452397;116;930437;-72
2022/01/01 00:49:58;;;;;;;23.37;20.82;;;;;;;1.13;81.79;100512.88;451726;116;930289;-72
2022/01/01 00:51:02;;;;;;;31.68;22.93;;;;;;;1.13;81.80;100506.67;452980;116;922295;-72
2022/01/01 00:52:06;;;;;;;31.92;24.95;;;;;;;1.13;81.79;100507.52;457553;115;923317;-72
2022/01/01 00:53:09;;;;;;;32.89;25.80;;;;;;;1.13;81.78;100512.04;455857;115;922739;-71
2022/01/01 00:54:12;;;;;;;32.64;25.56;;;;;;;1.13;81.86;100509.35;452229;115;922662;-72
2022/01/01 00:55:15;;;;;;;31.36;23.19;;;;;;;1.13;81.90;100504.83;452677;116;923022;-71
2022/01/01 00:56:21;;;;;;;30.63;24.99;;;;;;;1.13;81.96;100496.77;452359;116;922539;-73
2022/01/01 00:57:24;;;;;;;26.97;22.38;;;;;;;1.13;82.00;100499.46;453103;116;922625;-72
2022/01/01 00:58:27;;;;;;;39.36;28.14;;;;;;;1.14;82.03;100494.94;452457;116;930711;-71
2022/01/01 00:59:31;;;;;;;39.70;26.66;;;;;;;1.13;82.01;100491.41;452922;116;924641;-72
2022/01/01 01:00:34;;;;;;;37.48;27.53;;;;;;;1.14;82.04;100492.25;453167;116;922982;-71
2022/01/01 01:01:38;;;;;;;38.50;26.16;;;;;;;1.15;82.03;100492.10;451937;116;922683;-72
2022/01/01 01:02:42;;;;;;;27.88;22.27;;;;;;;1.16;82.00;100482.17;452148;116;930505;-72
2022/01/01 01:03:45;;;;;;;29.09;23.44;;;;;;;1.16;82.04;100483.02;452700;115;922661;-72
2022/01/01 01:04:49;;;;;;;36.88;28.56;;;;;;;1.16;82.00;100479.48;452187;116;922638;-72
2022/01/01 01:05:52;;;;;;;34.11;24.27;;;;;;;1.14;81.93;100482.35;452343;116;930629;-72
2022/01/01 01:06:55;;;;;;;27.09;23.04;;;;;;;1.12;81.91;100480.81;453503;116;922856;-72
2022/01/01 01:07:59;;;;;;;26.10;22.55;;;;;;;1.12;81.96;100478.13;453665;116;922654;-71
2022/01/01 01:09:02;;;;;;;31.31;24.44;;;;;;;1.10;81.90;100475.59;452568;116;924601;-71
2022/01/01 01:10:06;;;;;;;30.99;22.97;;;;;;;1.09;81.89;100463.19;452559;116;923093;-71
2022/01/01 01:11:10;;;;;;;33.35;24.58;;;;;;;1.09;81.93;100468.56;453252;116;922626;-74
2022/01/01 01:12:13;;;;;;;28.25;23.37;;;;;;;1.10;81.93;100469.41;452674;116;922777;-71
2022/01/01 01:13:17;;;;;;;35.13;25.34;;;;;;;1.09;81.95;100470.40;437772;119;923122;-71
2022/01/01 01:14:24;;;;;;;28.94;22.24;;;;;;;1.09;81.99;100463.19;437482;120;930501;-71
2022/01/01 01:15:30;;;;;;;23.92;21.27;;;;;;;1.10;81.96;100464.03;432192;120;922590;-71
2022/01/01 01:16:33;;;;;;;24.69;22.02;;;;;;;1.09;81.93;100460.50;441211;118;922819;-70
2022/01/01 01:17:37;;;;;;;26.01;21.71;;;;;;;1.09;81.87;100451.61;430827;120;922710;-70
2022/01/01 01:18:40;;;;;;;26.34;21.56;;;;;;;1.09;81.84;100451.61;432852;122;922675;-71
2022/01/01 01:19:44;;;;;;;37.81;25.62;;;;;;;1.08;81.86;100447.23;436566;121;930389;-72
2022/01/01 01:20:47;;;;;;;25.49;21.75;;;;;;;1.08;81.89;100436.48;429262;121;930518;-72
2022/01/01 01:21:51;;;;;;;25.55;22.20;;;;;;;1.10;82.00;100447.92;432652;121;930516;-71
2022/01/01 01:22:54;;;;;;;27.05;23.85;;;;;;;1.11;82.03;100437.00;429979;121;923080;-72
2022/01/01 01:23:58;;;;;;;29.41;21.84;;;;;;;1.12;82.03;100440.53;431378;119;922659;-72
2022/01/01 01:25:02;;;;;;;24.75;22.00;;;;;;;1.13;82.09;100443.07;432666;121;930458;-71
2022/01/01 01:26:07;;;;;;;25.98;21.27;;;;;;;1.14;82.05;100438.55;430768;121;922652;-73
2022/01/01 01:27:10;;;;;;;27.27;21.34;;;;;;;1.14;82.03;100438.55;431053;120;922638;-71
2022/01/01 01:28:14;;;;;;;24.73;20.71;;;;;;;1.14;82.08;100433.17;432415;119;922681;-70
2022/01/01 01:29:19;;;;;;;24.48;20.86;;;;;;;1.15;82.09;100429.50;432580;119;930115;-71
2022/01/01 01:30:25;;;;;;;24.45;21.12;;;;;;;1.15;82.09;100424.97;430060;119;923068;-71
2022/01/01 01:31:29;;;;;;;26.89;21.66;;;;;;;1.15;82.09;100424.13;432968;120;922595;-71
2022/01/01 01:32:32;;;;;;;28.13;21.12;;;;;;;1.17;82.07;100424.79;432067;119;922760;-71
2022/01/01 01:33:36;;;;;;;25.46;21.36;;;;;;;1.17;82.05;100416.73;430914;121;922721;-71
2022/01/01 01:34:39;;;;;;;29.17;22.51;;;;;;;1.17;82.00;100419.42;430024;121;923122;-71
2022/01/01 01:35:42;;;;;;;27.68;21.86;;;;;;;1.17;81.99;100420.27;434986;120;930419;-70
2022/01/01 01:36:46;;;;;;;25.99;21.48;;;;;;;1.16;81.99;100418.58;436610;118;922749;-72
2022/01/01 01:37:49;;;;;;;27.56;21.92;;;;;;;1.16;81.99;100415.89;434963;121;922502;-71
2022/01/01 01:38:53;;;;;;;31.17;22.74;;;;;;;1.15;81.97;100411.55;436197;121;923108;-72
2022/01/01 01:39:57;;;;;;;27.10;23.83;;;;;;;1.16;82.03;100410.52;434716;119;922615;-71
2022/01/01 01:41:00;;;;;;;29.05;21.26;;;;;;;1.16;82.10;100405.15;433716;121;930905;-72
2022/01/01 01:42:04;;;;;;;29.51;23.27;;;;;;;1.20;82.15;100405.70;434936;118;923179;-71
2022/01/01 01:43:10;;;;;;;30.79;24.01;;;;;;;1.20;82.17;100401.17;442312;118;922622;-71
2022/01/01 01:44:30;;;;;;;29.60;22.21;;;;;;;1.22;82.23;100403.67;443755;117;930457;-71
2022/01/01 01:45:34;;;;;;;26.18;20.17;;;;;;;1.23;82.20;100403.52;438124;120;922794;-71
2022/01/01 01:46:39;;;;;;;26.20;20.41;;;;;;;1.24;82.18;100401.68;439077;118;922650;-71
2022/01/01 01:47:44;;;;;;;28.47;20.82;;;;;;;1.23;82.14;100403.52;441820;118;930122;-71
2022/01/01 01:48:47;;;;;;;32.36;24.57;;;;;;;1.25;82.07;100401.53;438348;120;923421;-71
2022/01/01 01:49:50;;;;;;;34.58;23.47;;;;;;;1.25;82.04;100408.74;438501;118;923010;-71
2022/01/01 01:50:56;;;;;;;35.45;25.18;;;;;;;1.24;82.04;100398.99;445462;118;928879;-71
2022/01/01 01:51:59;;;;;;;26.27;21.39;;;;;;;1.24;82.10;100401.68;443287;118;922981;-72
2022/01/01 01:53:03;;;;;;;31.11;23.08;;;;;;;1.24;82.07;100394.47;442327;118;922580;-71
2022/01/01 01:54:09;;;;;;;30.23;23.34;;;;;;;1.23;82.06;100395.46;442694;118;926485;-71
2022/01/01 01:55:13;;;;;;;28.99;22.48;;;;;;;1.24;82.05;100402.52;441857;117;922547;-71
2022/01/01 01:56:17;;;;;;;41.83;24.79;;;;;;;1.23;82.06;100398.15;442895;118;922614;-71
2022/01/01 01:57:21;;;;;;;32.96;24.36;;;;;;;1.24;82.04;100389.09;444642;118;923741;-71
2022/01/01 01:58:25;;;;;;;29.99;22.98;;;;;;;1.23;82.08;100390.09;441481;120;930650;-72
2022/01/01 01:59:28;;;;;;;27.95;21.15;;;;;;;1.24;82.14;100385.56;433101;120;923078;-71
2022/01/01 02:01:36;;;;;;;29.79;22.10;;;;;;;1.26;82.17;100386.27;431963;122;922756;-72
2022/01/01 02:02:40;;;;;;;24.80;20.29;;;;;;;1.25;82.12;100384.57;434646;120;922685;-71
2022/01/01 02:03:43;;;;;;;33.66;24.43;;;;;;;1.25;82.01;100388.10;429175;120;922640;-69
2022/01/01 02:04:47;;;;;;;23.42;20.68;;;;;;;1.25;81.98;100382.73;430391;120;930629;-70
2022/01/01 02:05:52;;;;;;;29.24;22.14;;;;;;;1.23;81.98;100379.35;428617;120;923573;-70
2022/01/01 02:06:55;;;;;;;26.38;21.22;;;;;;;1.23;82.00;100383.88;432989;120;923067;-69
2022/01/01 02:07:59;;;;;;;23.63;20.21;;;;;;;1.22;82.02;100374.97;432179;120;922524;-70
2022/01/01 02:09:03;;;;;;;34.72;23.19;;;;;;;1.22;81.98;100380.34;442911;118;930405;-70
2022/01/01 02:10:07;;;;;;;25.98;20.63;;;;;;;1.21;81.95;100375.97;445363;119;930918;-70
2022/01/01 02:11:11;;;;;;;26.06;20.68;;;;;;;1.20;82.02;100379.69;444903;118;922663;-71
2022/01/01 02:12:15;;;;;;;30.36;22.52;;;;;;;1.20;82.05;100378.84;444553;117;930529;-70
2022/01/01 02:13:31;;;;;;;32.14;24.52;;;;;;;1.20;82.06;100368.94;440587;120;922695;-71
2022/01/01 02:14:52;;;;;;;32.49;24.02;;;;;;;1.20;82.01;100366.26;433113;122;930398;-72
2022/01/01 02:16:12;;;;;;;37.01;24.52;;;;;;;1.21;82.12;100367.91;440149;118;922642;-72
2022/01/01 02:17:09;;;;;;;21.82;19.56;;;;;;;1.21;82.09;100365.23;440781;119;922616;-70
2022/01/01 02:18:01;;;;;;;30.60;22.21;;;;;;;1.21;82.11;100359.05;439428;118;922979;-71
2022/01/01 02:19:04;;;;;;;24.48;20.21;;;;;;;1.20;82.13;100352.83;443616;118;923079;-72
2022/01/01 02:20:13;;;;;;;28.91;22.54;;;;;;;1.20;82.21;100354.67;443795;118;922747;-71
2022/01/01 02:21:18;;;;;;;26.68;22.40;;;;;;;1.18;82.14;100368.25;442015;118;923007;-71
2022/01/01 02:22:23;;;;;;;35.16;23.61;;;;;;;1.19;82.13;100361.03;442164;118;923056;-70
2022/01/01 02:23:27;;;;;;;29.81;22.82;;;;;;;1.18;82.13;100349.45;440422;118;923197;-72
2022/01/01 02:24:31;;;;;;;24.99;21.53;;;;;;;1.18;82.14;100364.72;442688;117;922512;-72
2022/01/01 02:25:34;;;;;;;23.56;21.14;;;;;;;1.18;82.13;100362.03;442566;118;930376;-72
2022/01/01 02:26:38;;;;;;;36.81;24.94;;;;;;;1.18;82.11;100360.20;444918;118;931058;-69
2022/01/01 02:27:42;;;;;;;33.64;24.29;;;;;;;1.18;82.09;100353.98;441641;117;930622;-71
2022/01/01 02:28:46;;;;;;;23.52;19.78;;;;;;;1.17;82.09;100354.97;443764;118;923038;-71
2022/01/01 02:29:50;;;;;;;20.76;18.64;;;;;;;1.16;82.15;100354.12;445243;118;922571;-71
2022/01/01 02:30:55;;;;;;;27.64;22.64;;;;;;;1.16;82.11;100355.97;445891;118;930707;-71
2022/01/01 02:31:59;;;;;;;29.84;23.75;;;;;;;1.16;82.09;100350.59;442876;118;922557;-71
2022/01/01 02:33:02;;;;;;;23.68;21.12;;;;;;;1.15;82.08;100349.78;439979;120;922915;-72
2022/01/01 02:34:07;;;;;;;30.79;23.61;;;;;;;1.16;82.08;100347.91;432817;120;922604;-70
2022/01/01 02:35:12;;;;;;;29.70;23.90;;;;;;;1.16;82.09;100339.86;440999;118;930527;-69
2022/01/01 02:36:29;;;;;;;33.77;24.18;;;;;;;1.17;82.10;100346.92;440818;119;930404;-70
2022/01/01 02:37:35;;;;;;;28.44;21.72;;;;;;;1.18;82.08;100349.45;443436;119;923254;-71
2022/01/01 02:38:38;;;;;;;23.37;18.86;;;;;;;1.18;82.00;100346.77;442353;119;922661;-72
2022/01/01 02:39:41;;;;;;;21.52;19.21;;;;;;;1.18;81.97;100345.92;443308;118;922456;-71
2022/01/01 02:40:45;;;;;;;21.31;19.19;;;;;;;1.16;81.98;100345.23;433614;120;930615;-72
2022/01/01 02:41:52;;;;;;;29.02;23.06;;;;;;;1.16;81.95;100345.23;445356;119;930754;-71
2022/01/01 02:42:55;;;;;;;33.65;24.02;;;;;;;1.14;81.90;100340.04;442454;117;925079;-71
2022/01/01 02:43:59;;;;;;;30.05;24.05;;;;;;;1.14;81.96;100336.52;443388;118;922574;-70
2022/01/01 02:45:07;;;;;;;31.17;23.40;;;;;;;1.16;82.00;100339.86;439926;119;922588;-71
2022/01/01 02:46:07;;;;;;;33.39;24.18;;;;;;;1.15;82.09;100339.05;445699;118;922662;-71
2022/01/01 02:47:11;;;;;;;26.88;22.72;;;;;;;1.17;82.20;100338.86;443765;118;922891;-71
2022/01/01 02:48:15;;;;;;;39.09;24.95;;;;;;;1.18;82.22;100333.34;440548;118;930373;-71
2022/01/01 02:49:18;;;;;;;30.29;22.74;;;;;;;1.20;82.26;100334.03;441614;119;922782;-71
2022/01/01 02:50:21;;;;;;;24.99;21.41;;;;;;;1.22;82.32;100332.01;445002;119;922774;-71
2022/01/01 02:51:25;;;;;;;30.76;23.83;;;;;;;1.24;82.34;100329.17;441371;118;930437;-70
2022/01/01 02:52:28;;;;;;;27.64;21.31;;;;;;;1.25;82.32;100333.55;440532;119;922674;-71
2022/01/01 02:53:31;;;;;;;26.37;21.09;;;;;;;1.25;82.29;100334.39;439028;119;923389;-69
2022/01/01 02:54:35;;;;;;;32.17;23.12;;;;;;;1.27;82.24;100330.70;440333;119;922600;-71
2022/01/01 02:55:40;;;;;;;35.62;25.06;;;;;;;1.27;82.26;100328.02;442123;118;930447;-71
2022/01/01 02:56:43;;;;;;;21.99;19.54;;;;;;;1.28;82.22;100326.99;439883;119;922907;-71
2022/01/01 02:57:46;;;;;;;29.11;20.33;;;;;;;1.29;82.18;100328.68;443189;119;922674;-72
2022/01/01 02:58:50;;;;;;;25.29;20.44;;;;;;;1.29;82.09;100328.68;440147;118;923483;-72
2022/01/01 02:59:54;;;;;;;32.28;23.69;;;;;;;1.28;82.04;100321.63;441444;119;930546;-70
2022/01/01 03:00:57;;;;;;;33.11;23.02;;;;;;;1.26;82.06;100324.49;442329;119;922731;-71
2022/01/01 03:02:01;;;;;;;33.78;23.37;;;;;;;1.27;82.04;100323.46;442657;119;930407;-71
2022/01/01 03:03:04;;;;;;;31.57;24.76;;;;;;;1.28;82.05;100325.16;442510;118;922607;-71
2022/01/01 03:04:08;;;;;;;29.46;22.94;;;;;;;1.29;82.09;100320.62;441394;119;926366;-72
2022/01/01 03:05:11;;;;;;;33.36;24.06;;;;;;;1.29;82.14;100313.41;439066;119;931023;-70
2022/01/01 03:06:27;;;;;;;31.32;23.48;;;;;;;1.30;82.15;100306.20;439604;118;922923;-72
2022/01/01 03:07:21;;;;;;;23.05;20.07;;;;;;;1.30;82.14;100312.41;439918;118;922663;-72
2022/01/01 03:08:24;;;;;;;23.14;19.84;;;;;;;1.30;82.15;100308.88;440616;119;922456;-70
2022/01/01 03:09:34;;;;;;;20.61;18.49;;;;;;;1.30;82.03;100307.05;444385;119;922913;-72
2022/01/01 03:10:33;;;;;;;26.53;20.19;;;;;;;1.30;81.98;100307.05;442270;119;923350;-71
2022/01/01 03:11:36;;;;;;;26.20;20.39;;;;;;;1.29;81.93;100305.35;440578;119;923193;-71
2022/01/01 03:12:39;;;;;;;27.58;21.11;;;;;;;1.29;81.92;100310.73;439181;119;922639;-70
2022/01/01 03:13:43;;;;;;;31.74;25.17;;;;;;;1.29;81.87;100299.98;444296;119;922556;-70
2022/01/01 03:14:46;;;;;;;33.56;25.57;;;;;;;1.30;81.89;100303.52;441859;119;923024;-70
2022/01/01 03:15:50;;;;;;;23.64;20.80;;;;;;;1.31;81.92;100306.05;439872;119;922756;-71
2022/01/01 03:16:55;;;;;;;29.47;22.29;;;;;;;1.33;81.96;100304.02;444085;119;923120;-69
2022/01/01 03:18:00;;;;;;;28.98;22.17;;;;;;;1.34;81.92;100304.86;443789;118;922688;-71
2022/01/01 03:19:03;;;;;;;35.13;24.34;;;;;;;1.34;81.95;100294.12;441365;119;922647;-71
2022/01/01 03:20:08;;;;;;;28.94;22.79;;;;;;;1.34;81.96;100294.12;441269;119;922559;-70
2022/01/01 03:21:12;;;;;;;28.96;21.56;;;;;;;1.36;81.93;100292.13;438464;119;930508;-70
2022/01/01 03:22:15;;;;;;;24.35;20.74;;;;;;;1.37;81.93;100299.19;440014;118;922667;-71
2022/01/01 03:23:18;;;;;;;33.92;25.61;;;;;;;1.37;81.84;100294.66;442521;117;922830;-71
2022/01/01 03:24:22;;;;;;;33.38;25.08;;;;;;;1.37;81.81;100291.97;439097;119;930591;-71
2022/01/01 03:25:26;;;;;;;32.25;23.42;;;;;;;1.37;81.83;100294.66;439869;119;923236;-71
2022/01/01 03:26:29;;;;;;;28.93;23.54;;;;;;;1.38;81.88;100290.94;441570;118;922692;-71
2022/01/01 03:27:32;;;;;;;33.06;25.49;;;;;;;1.40;81.90;100291.63;441124;119;922672;-72
2022/01/01 03:28:36;;;;;;;43.46;29.93;;;;;;;1.41;81.88;100290.63;444266;119;922756;-72
2022/01/01 03:29:39;;;;;;;31.73;24.05;;;;;;;1.42;81.88;100291.48;443754;119;922576;-72
2022/01/01 03:30:42;;;;;;;27.86;21.86;;;;;;;1.42;81.93;100280.73;442244;118;922575;-72
2022/01/01 03:31:46;;;;;;;30.40;23.24;;;;;;;1.42;81.94;100280.73;444079;119;922524;-71
2022/01/01 03:32:49;;;;;;;37.48;25.64;;;;;;;1.42;81.93;100280.73;443081;119;922957;-70
2022/01/01 03:33:53;;;;;;;27.41;22.28;;;;;;;1.42;81.85;100270.83;442423;118;926494;-71
2022/01/01 03:34:56;;;;;;;37.12;24.25;;;;;;;1.42;81.82;100272.67;441660;119;922974;-70
2022/01/01 03:36:00;;;;;;;28.22;21.73;;;;;;;1.43;81.85;100274.36;443094;119;931159;-73
2022/01/01 03:37:04;;;;;;;24.98;21.07;;;;;;;1.44;81.88;100271.48;441804;118;922625;-71
2022/01/01 03:38:07;;;;;;;26.72;21.95;;;;;;;1.45;81.90;100269.64;441985;118;922621;-71
2022/01/01 03:39:10;;;;;;;28.56;21.57;;;;;;;1.46;81.89;100264.11;443673;119;922662;-72
2022/01/01 03:40:14;;;;;;;32.38;23.94;;;;;;;1.48;81.84;100270.17;444282;119;923062;-72
2022/01/01 03:41:18;;;;;;;26.31;20.00;;;;;;;1.47;81.79;100275.70;442478;118;922750;-71
2022/01/01 03:42:21;;;;;;;26.01;21.15;;;;;;;1.49;81.81;100276.39;441980;119;930407;-72
2022/01/01 03:43:24;;;;;;;28.07;20.97;;;;;;;1.48;81.82;100261.27;440119;119;922741;-71
2022/01/01 03:44:27;;;;;;;30.83;24.11;;;;;;;1.47;81.81;100249.69;439842;119;922943;-71
2022/01/01 03:45:32;;;;;;;33.14;24.50;;;;;;;1.48;81.81;100259.43;443721;119;922594;-70
2022/01/01 03:46:35;;;;;;;36.84;24.80;;;;;;;1.50;81.90;100259.24;440052;119;922617;-71
2022/01/01 03:47:39;;;;;;;35.36;25.23;;;;;;;1.51;81.96;100259.09;442220;119;923120;-71
2022/01/01 03:48:42;;;;;;;27.82;22.20;;;;;;;1.54;82.04;100255.25;444831;118;922632;-71
2022/01/01 03:49:46;;;;;;;31.27;22.22;;;;;;;1.56;82.11;100250.53;441948;119;922834;-71
2022/01/01 03:50:49;;;;;;;29.42;21.58;;;;;;;1.58;82.08;100248.53;443546;119;923686;-71
2022/01/01 03:51:52;;;;;;;36.36;23.74;;;;;;;1.59;82.07;100253.75;445054;119;922684;-71
2022/01/01 03:52:56;;;;;;;40.39;26.31;;;;;;;1.61;82.13;100248.18;443716;118;922690;-71
2022/01/01 03:53:59;;;;;;;35.62;24.22;;;;;;;1.63;82.15;100248.88;441708;119;922607;-70
2022/01/01 03:55:03;;;;;;;29.91;22.09;;;;;;;1.65;82.22;100241.50;440267;119;922961;-70
2022/01/01 03:56:07;;;;;;;26.62;20.48;;;;;;;1.66;82.26;100237.78;442887;119;930274;-70
2022/01/01 03:57:11;;;;;;;27.64;20.34;;;;;;;1.68;82.29;100241.15;441625;119;923472;-69
2022/01/01 03:58:14;;;;;;;26.71;21.21;;;;;;;1.69;82.28;100240.15;441833;119;922793;-70
2022/01/01 03:59:17;;;;;;;26.59;22.22;;;;;;;1.71;82.24;100234.61;439520;119;922547;-70
2022/01/01 04:00:21;;;;;;;33.94;24.09;;;;;;;1.71;82.13;100232.74;441237;119;930444;-70
2022/01/01 04:01:24;;;;;;;30.52;22.29;;;;;;;1.71;82.11;100237.30;440283;120;930694;-72
2022/01/01 04:02:28;;;;;;;23.22;19.86;;;;;;;1.72;82.13;100229.05;428585;120;922636;-70
2022/01/01 04:03:32;;;;;;;33.82;23.32;;;;;;;1.73;82.05;100230.73;439273;120;930937;-69
2022/01/01 04:04:35;;;;;;;28.48;21.56;;;;;;;1.74;82.06;100228.89;439462;118;922581;-70
2022/01/01 04:05:42;;;;;;;27.14;22.09;;;;;;;1.73;82.08;100228.05;439265;119;922578;-71
2022/01/01 04:06:46;;;;;;;25.23;20.61;;;;;;;1.75;82.07;100220.67;439729;118;922663;-71
2022/01/01 04:07:49;;;;;;;24.45;20.33;;;;;;;1.75;82.13;100215.30;433709;122;923209;-71
2022/01/01 04:08:53;;;;;;;25.56;20.84;;;;;;;1.77;82.06;100223.17;432874;122;930114;-71
2022/01/01 04:09:56;;;;;;;23.55;19.07;;;;;;;1.77;81.98;100226.70;443386;118;922638;-71
2022/01/01 04:10:59;;;;;;;21.14;19.02;;;;;;;1.77;81.93;100225.86;441339;119;922547;-70
2022/01/01 04:12:03;;;;;;;19.36;17.37;;;;;;;1.75;81.84;100234.11;440146;119;922844;-71
2022/01/01 04:13:09;;;;;;;22.42;18.91;;;;;;;1.74;81.79;100232.42;442968;118;922656;-70
2022/01/01 04:14:15;;;;;;;29.44;21.87;;;;;;;1.73;81.69;100222.67;442551;118;930682;-72
2022/01/01 04:15:17;;;;;;;27.39;22.11;;;;;;;1.72;81.59;100223.67;438935;120;922552;-70
2022/01/01 04:16:23;;;;;;;26.77;22.59;;;;;;;1.71;81.61;100215.80;434378;120;922623;-72
2022/01/01 04:17:27;;;;;;;28.39;22.64;;;;;;;1.71;81.66;100221.18;433957;120;923594;-72
2022/01/01 04:18:38;;;;;;;24.30;21.36;;;;;;;1.70;81.71;100209.59;440974;120;922926;-70
2022/01/01 04:19:43;;;;;;;25.33;20.75;;;;;;;1.70;81.82;100209.59;432777;122;923024;-73
2022/01/01 04:20:44;;;;;;;28.67;23.19;;;;;;;1.72;81.99;100220.98;431089;119;922615;-72
2022/01/01 04:21:48;;;;;;;26.84;21.27;;;;;;;1.73;82.00;100209.23;432566;122;922523;-71
2022/01/01 04:22:53;;;;;;;19.98;17.28;;;;;;;1.75;82.08;100211.77;445090;117;923041;-72
2022/01/01 04:23:56;;;;;;;22.98;20.21;;;;;;;1.75;82.13;100212.61;439459;119;922695;-73
2022/01/01 04:25:00;;;;;;;28.23;21.35;;;;;;;1.77;82.11;100199.83;442428;118;923342;-72
2022/01/01 04:26:03;;;;;;;20.59;17.93;;;;;;;1.78;82.19;100198.83;443356;118;923011;-69
2022/01/01 04:27:08;;;;;;;21.95;19.58;;;;;;;1.79;82.20;100203.20;442325;118;922704;-72
2022/01/01 04:28:11;;;;;;;19.45;16.92;;;;;;;1.80;82.16;100199.51;443117;118;922794;-71
2022/01/01 04:29:14;;;;;;;21.74;19.03;;;;;;;1.81;82.14;100197.66;442512;117;922846;-71
2022/01/01 04:30:21;;;;;;;24.05;20.06;;;;;;;1.81;82.11;100200.35;441748;118;923092;-72
2022/01/01 04:31:25;;;;;;;20.12;17.82;;;;;;;1.81;82.08;100201.20;442171;118;922553;-71
2022/01/01 04:32:28;;;;;;;16.66;15.13;;;;;;;1.82;82.05;100196.66;441531;118;922830;-69
2022/01/01 04:33:32;;;;;;;20.84;18.79;;;;;;;1.83;82.05;100192.94;444044;117;922976;-72
2022/01/01 04:34:35;;;;;;;23.23;20.09;;;;;;;1.83;82.05;100193.78;444868;118;923112;-70
2022/01/01 04:35:39;;;;;;;22.57;19.87;;;;;;;1.83;82.06;100199.16;446368;118;922531;-71
2022/01/01 04:36:55;;;;;;;23.24;19.15;;;;;;;1.84;82.08;100186.56;443333;118;922875;-72
2022/01/01 04:37:47;;;;;;;16.07;14.51;;;;;;;1.82;82.12;100181.34;438774;118;931178;-72
2022/01/01 04:38:51;;;;;;;19.36;17.32;;;;;;;1.83;82.13;100191.09;441060;118;922870;-69
2022/01/01 04:39:59;;;;;;;18.69;16.85;;;;;;;1.84;82.08;100189.25;445508;118;923224;-74
2022/01/01 04:40:59;;;;;;;17.28;15.59;;;;;;;1.83;82.08;100185.72;442821;118;922659;-72
2022/01/01 04:42:03;;;;;;;19.91;17.82;;;;;;;1.83;82.07;100183.03;442393;118;922564;-69
2022/01/01 04:43:06;;;;;;;19.19;17.29;;;;;;;1.83;82.02;100179.50;444314;118;922546;-72
2022/01/01 04:44:10;;;;;;;21.51;17.92;;;;;;;1.82;81.98;100183.22;444270;118;923298;-72
2022/01/01 04:45:14;;;;;;;17.98;15.98;;;;;;;1.81;82.00;100187.75;444218;118;930550;-70
2022/01/01 04:46:17;;;;;;;20.62;18.45;;;;;;;1.80;82.00;100183.37;446240;118;922566;-72
2022/01/01 04:47:21;;;;;;;21.68;18.23;;;;;;;1.80;82.04;100177.16;435897;120;922638;-71
2022/01/01 04:48:24;;;;;;;22.12;19.56;;;;;;;1.79;82.10;100179.00;441186;118;931205;-70
2022/01/01 04:49:27;;;;;;;18.92;17.06;;;;;;;1.80;82.13;100178.00;437840;118;923458;-72
2022/01/01 04:50:32;;;;;;;24.81;20.54;;;;;;;1.82;82.15;100181.34;446822;118;922619;-70
2022/01/01 04:51:37;;;;;;;24.96;20.43;;;;;;;1.82;82.09;100175.16;443859;118;923337;-71